createdAt,value
2019-05-02T00:01:42.768Z,6.80
2019-05-02T00:04:12.503Z,6.30
2019-05-02T00:06:44.224Z,6.90
2019-05-02T00:09:13.056Z,7.33
2019-05-02T00:11:42.054Z,7.07
2019-05-02T00:14:11.154Z,6.63
2019-05-02T00:16:40.501Z,7.37
2019-05-02T00:19:13.961Z,6.40
2019-05-02T00:21:42.987Z,6.67
2019-05-02T00:24:13.817Z,6.40
2019-05-02T00:26:42.751Z,7.07
2019-05-02T00:29:11.688Z,6.57
2019-05-02T00:31:41.858Z,6.53
2019-05-02T00:34:11.824Z,7.17
2019-05-02T00:36:40.476Z,7.03
2019-05-02T00:39:13.669Z,6.20
2019-05-02T00:41:40.472Z,6.93
2019-05-02T00:44:11.121Z,6.50
2019-05-02T00:46:39.638Z,6.20
2019-05-02T00:49:08.386Z,6.70
2019-05-02T00:51:37.059Z,5.93
2019-05-02T00:54:05.795Z,6.67
2019-05-02T00:56:34.478Z,7.30
2019-05-02T00:59:07.464Z,7.33
2019-05-02T01:01:44.161Z,6.80
2019-05-02T01:04:23.311Z,6.57
2019-05-02T01:06:51.860Z,6.33
2019-05-02T01:09:20.508Z,5.80
2019-05-02T01:11:49.338Z,6.57
2019-05-02T01:14:18.254Z,6.87
2019-05-02T01:16:49.338Z,6.70
2019-05-02T01:19:18.355Z,6.80
2019-05-02T01:21:47.298Z,6.63
2019-05-02T01:24:16.623Z,6.60
2019-05-02T01:26:53.866Z,6.63
2019-05-02T01:29:31.771Z,7.13
2019-05-02T01:32:06.711Z,6.80
2019-05-02T01:34:54.499Z,6.60
2019-05-02T01:37:28.287Z,7.17
2019-05-02T01:39:57.446Z,6.57
2019-05-02T01:42:38.741Z,6.43
2019-05-02T01:44:57.049Z,6.40
2019-05-02T01:47:29.049Z,7.17
2019-05-02T01:49:58.803Z,7.17
2019-05-02T01:52:27.551Z,6.50
2019-05-02T01:54:56.563Z,6.73
2019-05-02T01:57:25.780Z,6.73
2019-05-02T01:59:54.695Z,6.60
2019-05-02T02:02:23.482Z,7.47
2019-05-02T02:04:56.840Z,6.50
2019-05-02T02:07:23.046Z,7.17
2019-05-02T02:09:51.739Z,5.90
2019-05-02T02:12:20.661Z,6.20
2019-05-02T02:14:53.541Z,7.27
2019-05-02T02:17:20.268Z,6.60
2019-05-02T02:19:53.806Z,6.73
2019-05-02T02:22:45.544Z,7.13
2019-05-02T02:25:45.765Z,6.70
2019-05-02T02:28:15.263Z,6.23
2019-05-02T02:30:44.236Z,6.90
2019-05-02T02:33:12.899Z,6.60
2019-05-02T02:35:49.737Z,6.67
2019-05-02T02:38:12.509Z,6.63
2019-05-02T02:40:41.477Z,6.50
2019-05-02T02:43:32.196Z,6.70
2019-05-02T02:45:59.717Z,7.00
2019-05-02T02:48:33.915Z,6.00
2019-05-02T02:50:59.830Z,6.80
2019-05-02T02:53:31.646Z,6.73
2019-05-02T02:56:04.040Z,6.53
2019-05-02T02:58:44.065Z,6.87
2019-05-02T03:01:03.661Z,6.07
2019-05-02T03:03:35.090Z,6.70
2019-05-02T03:06:05.702Z,6.67
2019-05-02T03:08:44.575Z,6.20
2019-05-02T03:11:04.363Z,6.90
2019-05-02T03:14:06.801Z,6.50
2019-05-02T03:16:32.463Z,6.67
2019-05-02T03:19:01.903Z,6.50
2019-05-02T03:21:31.114Z,7.03
2019-05-02T03:24:03.249Z,6.93
2019-05-02T03:26:31.339Z,7.47
2019-05-02T03:29:00.907Z,6.67
2019-05-02T03:31:31.405Z,6.80
2019-05-02T03:34:01.498Z,5.60
2019-05-02T03:36:36.392Z,6.73
2019-05-02T03:39:13.370Z,6.80
2019-05-02T03:41:32.975Z,6.73
2019-05-02T03:44:11.114Z,8.00
2019-05-02T03:46:32.600Z,7.17
2019-05-02T03:49:07.033Z,6.63
2019-05-02T03:51:32.159Z,6.83
2019-05-02T03:54:07.383Z,7.00
2019-05-02T03:56:32.342Z,7.00
2019-05-02T03:59:01.005Z,8.90
2019-05-02T04:01:34.647Z,6.27
2019-05-02T04:04:01.280Z,7.17
2019-05-02T04:06:30.305Z,6.83
2019-05-02T04:09:01.717Z,6.57
2019-05-02T04:11:37.933Z,6.80
2019-05-02T04:14:00.841Z,6.67
2019-05-02T04:16:29.922Z,6.07
2019-05-02T04:19:07.743Z,6.03
2019-05-02T04:21:36.529Z,6.63
2019-05-02T04:24:13.282Z,6.50
2019-05-02T04:26:35.976Z,7.10
2019-05-02T04:29:04.817Z,6.50
2019-05-02T04:31:34.014Z,6.80
2019-05-02T04:34:14.027Z,6.80
2019-05-02T04:36:33.127Z,6.10
2019-05-02T04:39:05.709Z,6.93
2019-05-02T04:41:34.292Z,7.70
2019-05-02T04:44:02.887Z,6.40
2019-05-02T04:46:32.073Z,6.47
2019-05-02T04:49:01.032Z,6.43
2019-05-02T04:51:32.026Z,6.00
2019-05-02T04:54:00.764Z,6.50
2019-05-02T04:56:29.419Z,6.17
2019-05-02T04:59:01.195Z,6.30
2019-05-02T05:01:33.134Z,6.03
2019-05-02T05:04:03.018Z,6.03
2019-05-02T05:06:31.552Z,6.00
2019-05-02T05:09:04.109Z,6.77
2019-05-02T05:11:31.050Z,6.23
2019-05-02T05:14:00.478Z,6.30
2019-05-02T05:16:29.726Z,6.37
2019-05-02T05:19:00.089Z,6.47
2019-05-02T05:21:29.506Z,6.57
2019-05-02T05:24:18.285Z,6.77
2019-05-02T05:26:50.524Z,6.30
2019-05-02T05:29:23.241Z,6.37
2019-05-02T05:31:50.116Z,7.10
2019-05-02T05:34:22.795Z,6.20
2019-05-02T05:36:49.990Z,6.90
2019-05-02T05:39:18.971Z,5.90
2019-05-02T05:41:52.155Z,6.63
2019-05-02T05:44:18.278Z,6.10
2019-05-02T05:46:49.421Z,6.00
2019-05-02T05:49:21.659Z,5.80
2019-05-02T05:51:49.477Z,6.17
2019-05-02T05:54:18.976Z,6.30
2019-05-02T05:56:48.133Z,5.60
2019-05-02T05:59:17.513Z,5.97
2019-05-02T06:01:48.348Z,6.20
2019-05-02T06:04:19.423Z,7.03
2019-05-02T06:06:48.015Z,6.37
2019-05-02T06:09:16.801Z,7.57
2019-05-02T06:11:45.525Z,6.63
2019-05-02T06:14:14.211Z,6.83
2019-05-02T06:16:46.704Z,6.67
2019-05-02T06:19:17.830Z,6.80
2019-05-02T06:21:45.224Z,7.63
2019-05-02T06:24:15.816Z,7.17
2019-05-02T06:26:49.790Z,6.00
2019-05-02T06:29:18.647Z,6.33
2019-05-02T06:31:47.463Z,8.83
2019-05-02T06:34:16.207Z,7.40
2019-05-02T06:36:44.939Z,6.17
2019-05-02T06:39:13.731Z,6.03
2019-05-02T06:41:42.647Z,8.00
2019-05-02T06:44:11.995Z,6.37
2019-05-02T06:46:41.534Z,6.60
2019-05-02T06:49:10.863Z,6.60
2019-05-02T06:51:40.128Z,7.13
2019-05-02T06:54:09.329Z,7.40
2019-05-02T06:56:38.288Z,5.77
2019-05-02T06:59:06.959Z,6.17
2019-05-02T07:01:36.478Z,7.00
2019-05-02T07:04:05.428Z,6.40
2019-05-02T07:06:49.751Z,6.60
2019-05-02T07:09:06.184Z,6.40
2019-05-02T07:11:38.940Z,6.27
2019-05-02T07:14:12.908Z,6.23
2019-05-02T07:16:54.606Z,7.17
2019-05-02T07:19:32.027Z,6.37
2019-05-02T07:22:04.304Z,6.00
2019-05-02T07:24:32.709Z,9.30
2019-05-02T07:27:02.429Z,6.80
2019-05-02T07:29:31.473Z,6.17
2019-05-02T07:32:00.223Z,6.23
2019-05-02T07:34:29.275Z,7.07
2019-05-02T07:36:58.133Z,7.03
2019-05-02T07:39:26.803Z,6.13
2019-05-02T07:41:55.498Z,6.50
2019-05-02T07:44:27.104Z,7.30
2019-05-02T07:46:56.882Z,7.27
2019-05-02T07:49:26.637Z,6.70
2019-05-02T07:51:57.630Z,8.80
2019-05-02T07:54:26.826Z,7.60
2019-05-02T07:56:55.865Z,8.77
2019-05-02T07:59:25.159Z,6.57
2019-05-02T08:01:54.224Z,6.70
2019-05-02T08:04:23.462Z,6.80
2019-05-02T08:06:52.447Z,7.20
2019-05-02T08:09:21.134Z,8.13
2019-05-02T08:11:50.602Z,11.93
2019-05-02T08:14:19.273Z,6.50
2019-05-02T08:16:47.943Z,6.93
2019-05-02T08:19:16.653Z,8.00
2019-05-02T08:21:45.312Z,7.07
2019-05-02T08:24:13.958Z,7.43
2019-05-02T08:26:53.356Z,11.03
2019-05-02T08:29:23.329Z,8.47
2019-05-02T08:31:52.320Z,6.17
2019-05-02T08:34:29.610Z,6.30
2019-05-02T08:36:58.849Z,8.23
2019-05-02T08:39:33.463Z,6.90
2019-05-02T08:41:59.070Z,14.73
2019-05-02T08:44:27.739Z,7.50
2019-05-02T08:46:56.377Z,6.77
2019-05-02T08:49:25.148Z,7.77
2019-05-02T08:51:54.066Z,6.77
2019-05-02T08:54:23.281Z,8.63
2019-05-02T08:56:53.215Z,7.87
2019-05-02T08:59:24.557Z,6.50
2019-05-02T09:01:53.783Z,6.97
2019-05-02T09:04:24.202Z,8.20
2019-05-02T09:06:58.750Z,7.70
2019-05-02T09:09:28.194Z,6.30
2019-05-02T09:12:03.290Z,10.03
2019-05-02T09:14:24.870Z,10.47
2019-05-02T09:16:53.795Z,6.60
2019-05-02T09:19:26.399Z,6.83
2019-05-02T09:21:53.418Z,6.43
2019-05-02T09:24:23.965Z,6.67
2019-05-02T09:26:52.772Z,6.90
2019-05-02T09:29:22.299Z,7.47
2019-05-02T09:31:52.669Z,6.70
2019-05-02T09:34:26.390Z,8.50
2019-05-02T09:36:52.938Z,7.13
2019-05-02T09:39:22.721Z,7.03
2019-05-02T09:41:52.808Z,7.43
2019-05-02T09:44:22.527Z,7.07
2019-05-02T09:46:55.220Z,8.00
2019-05-02T09:49:22.704Z,6.67
2019-05-02T09:51:59.232Z,7.10
2019-05-02T09:54:23.153Z,7.00
2019-05-02T09:56:52.487Z,7.03
2019-05-02T09:59:29.897Z,6.90
2019-05-02T10:01:53.548Z,7.80
2019-05-02T10:04:22.501Z,12.97
2019-05-02T10:06:52.440Z,6.90
2019-05-02T10:09:24.353Z,7.53
2019-05-02T10:11:52.538Z,7.37
2019-05-02T10:14:22.599Z,8.03
2019-05-02T10:16:52.920Z,7.67
2019-05-02T10:19:25.494Z,7.67
2019-05-02T10:21:56.148Z,9.73
2019-05-02T10:24:23.437Z,7.50
2019-05-02T10:26:55.278Z,8.37
2019-05-02T10:29:28.236Z,10.20
2019-05-02T10:31:54.147Z,7.00
2019-05-02T10:34:22.905Z,8.33
2019-05-02T10:36:58.753Z,7.60
2019-05-02T10:39:23.486Z,8.40
2019-05-02T10:41:53.466Z,8.20
2019-05-02T10:44:22.746Z,8.10
2019-05-02T10:46:58.852Z,6.80
2019-05-02T10:49:32.606Z,7.13
2019-05-02T10:52:02.653Z,9.17
2019-05-02T10:54:33.716Z,19.47
2019-05-02T10:57:02.420Z,6.77
2019-05-02T10:59:32.769Z,8.63
2019-05-02T11:02:35.556Z,8.53
2019-05-02T11:05:11.956Z,12.30
2019-05-02T11:07:42.014Z,6.23
2019-05-02T11:10:12.271Z,7.90
2019-05-02T11:12:47.151Z,8.57
2019-05-02T11:15:47.123Z,10.07
2019-05-02T11:18:17.751Z,7.73
2019-05-02T11:20:46.958Z,6.93
2019-05-02T11:23:16.159Z,7.30
2019-05-02T11:25:44.864Z,8.13
2019-05-02T11:28:14.149Z,9.80
2019-05-02T11:30:43.022Z,8.20
2019-05-02T11:33:13.433Z,9.50
2019-05-02T11:35:48.999Z,7.20
2019-05-02T11:38:14.232Z,7.70
2019-05-02T11:40:43.235Z,8.87
2019-05-02T11:43:12.638Z,7.87
2019-05-02T11:45:42.475Z,11.10
2019-05-02T11:48:13.997Z,7.53
2019-05-02T11:50:42.565Z,9.67
2019-05-02T11:53:23.203Z,6.60
2019-05-02T11:55:43.867Z,8.20
2019-05-02T11:58:12.836Z,7.53
2019-05-02T12:00:45.375Z,7.63
2019-05-02T12:03:21.953Z,8.20
2019-05-02T12:05:52.462Z,6.93
2019-05-02T12:08:22.622Z,7.53
2019-05-02T12:10:52.008Z,10.50
2019-05-02T12:13:22.697Z,9.90
2019-05-02T12:15:52.020Z,8.00
2019-05-02T12:18:23.162Z,8.47
2019-05-02T12:20:52.189Z,10.23
2019-05-02T12:23:22.666Z,7.23
2019-05-02T12:25:52.057Z,8.27
2019-05-02T12:28:22.780Z,7.30
2019-05-02T12:30:54.495Z,7.60
2019-05-02T12:33:24.803Z,7.57
2019-05-02T12:35:53.987Z,7.43
2019-05-02T12:38:23.231Z,8.90
2019-05-02T12:40:52.718Z,8.70
2019-05-02T12:43:22.901Z,7.50
2019-05-02T12:45:52.771Z,14.30
2019-05-02T12:48:22.150Z,10.10
2019-05-02T12:50:52.764Z,7.37
2019-05-02T12:53:22.122Z,8.30
2019-05-02T12:55:52.739Z,7.90
2019-05-02T12:58:22.016Z,8.30
2019-05-02T13:00:52.856Z,7.70
2019-05-02T13:03:44.390Z,8.57
2019-05-02T13:06:13.274Z,7.87
2019-05-02T13:08:52.566Z,11.67
2019-05-02T13:11:32.110Z,8.83
2019-05-02T13:14:02.240Z,9.30
2019-05-02T13:16:33.338Z,8.83
2019-05-02T13:19:02.903Z,8.73
2019-05-02T13:21:41.819Z,8.23
2019-05-02T13:24:16.620Z,7.80
2019-05-02T13:26:45.899Z,8.33
2019-05-02T13:29:14.782Z,8.10
2019-05-02T13:31:53.112Z,8.57
2019-05-02T13:34:35.344Z,8.77
2019-05-02T13:37:04.753Z,7.57
2019-05-02T13:39:42.335Z,7.67
2019-05-02T13:42:12.561Z,9.83
2019-05-02T13:44:48.994Z,8.93
2019-05-02T13:47:21.748Z,7.77
2019-05-02T13:49:54.881Z,6.63
2019-05-02T13:52:22.547Z,8.90
2019-05-02T13:54:52.252Z,9.17
2019-05-02T13:57:21.828Z,7.23
2019-05-02T13:59:52.576Z,7.87
2019-05-02T14:02:34.879Z,6.80
2019-05-02T14:05:03.704Z,7.30
2019-05-02T14:07:32.929Z,7.03
2019-05-02T14:10:05.389Z,7.37
2019-05-02T14:12:53.423Z,7.37
2019-05-02T14:15:24.455Z,7.20
2019-05-02T14:17:53.350Z,7.57
2019-05-02T14:20:22.572Z,7.43
2019-05-02T14:22:52.721Z,10.40
2019-05-02T14:25:22.353Z,7.10
2019-05-02T14:27:55.438Z,6.83
2019-05-02T14:30:36.307Z,8.53
2019-05-02T14:32:53.990Z,6.63
2019-05-02T14:35:28.611Z,6.90
2019-05-02T14:38:10.050Z,9.27
2019-05-02T14:40:48.453Z,6.17
2019-05-02T14:43:38.116Z,9.67
2019-05-02T14:46:06.854Z,6.70
2019-05-02T14:48:43.692Z,6.47
2019-05-02T14:51:08.494Z,7.07
2019-05-02T14:53:37.382Z,6.60
2019-05-02T14:56:32.955Z,6.70
2019-05-02T14:59:02.610Z,6.47
2019-05-02T15:01:32.297Z,6.60
2019-05-02T15:04:06.542Z,6.93
2019-05-02T15:06:33.600Z,6.30
2019-05-02T15:09:02.874Z,8.70
2019-05-02T15:11:34.803Z,6.77
2019-05-02T15:14:03.144Z,6.57
2019-05-02T15:16:40.463Z,6.40
2019-05-02T15:19:03.018Z,8.53
2019-05-02T15:21:47.070Z,6.40
2019-05-02T15:24:14.520Z,7.80
2019-05-02T15:26:43.919Z,9.70
2019-05-02T15:29:19.807Z,12.60
2019-05-02T15:31:49.272Z,11.50
2019-05-02T15:34:29.768Z,10.07
2019-05-02T15:36:58.424Z,7.87
2019-05-02T15:41:57.524Z,22.63
2019-05-02T15:44:27.099Z,16.57
2019-05-02T15:46:58.378Z,15.03
2019-05-02T15:49:26.735Z,29.83
2019-05-02T15:51:56.419Z,20.50
2019-05-02T15:54:25.322Z,15.13
2019-05-02T15:57:00.494Z,15.87
2019-05-02T15:59:44.916Z,12.70
2019-05-02T16:02:08.062Z,12.67
2019-05-02T16:04:38.378Z,10.13
2019-05-02T16:07:08.510Z,15.93
2019-05-02T16:09:37.567Z,11.70
2019-05-02T16:12:06.511Z,10.30
2019-05-02T16:14:36.093Z,10.00
2019-05-02T16:17:05.080Z,10.70
2019-05-02T16:19:37.390Z,11.50
2019-05-02T16:22:12.840Z,9.90
2019-05-02T16:24:43.869Z,6.57
2019-05-02T16:27:16.422Z,7.03
2019-05-02T16:29:42.587Z,8.70
2019-05-02T16:32:17.094Z,5.73
2019-05-02T16:34:54.939Z,4.20
2019-05-02T16:37:24.376Z,10.23
2019-05-02T16:39:53.522Z,8.17
2019-05-02T16:42:22.830Z,9.10
2019-05-02T16:44:54.440Z,9.50
2019-05-02T16:47:32.650Z,7.60
2019-05-02T16:50:02.423Z,6.10
2019-05-02T16:52:32.717Z,4.27
2019-05-02T16:55:03.048Z,5.03
2019-05-02T16:57:32.735Z,6.83
2019-05-02T17:00:06.242Z,4.00
2019-05-02T17:02:33.122Z,2.70
2019-05-02T17:05:08.210Z,4.67
2019-05-02T17:07:44.062Z,6.67
2019-05-02T17:10:34.990Z,3.80
2019-05-02T17:13:03.866Z,4.30
2019-05-02T17:15:35.417Z,2.87
2019-05-02T17:18:12.660Z,3.67
2019-05-02T17:20:36.375Z,10.20
2019-05-02T17:23:07.440Z,5.23
2019-05-02T17:25:36.886Z,3.23
2019-05-02T17:28:10.361Z,4.07
2019-05-02T17:30:38.932Z,4.10
2019-05-02T17:33:12.813Z,2.83
2019-05-02T17:35:41.679Z,2.23
2019-05-02T17:38:11.898Z,5.90
2019-05-02T17:40:42.163Z,5.43
2019-05-02T17:43:11.047Z,7.90
2019-05-02T17:45:40.358Z,2.07
2019-05-02T17:48:15.876Z,2.57
2019-05-02T17:50:59.558Z,3.37
2019-05-02T17:53:33.868Z,2.33
2019-05-02T17:56:01.919Z,5.33
2019-05-02T17:58:31.822Z,3.20
2019-05-02T18:01:02.754Z,2.97
2019-05-02T18:03:35.109Z,6.70
2019-05-02T18:06:02.638Z,8.63
2019-05-02T18:08:32.272Z,5.37
2019-05-02T18:11:02.815Z,3.73
2019-05-02T18:13:34.016Z,5.47
2019-05-02T18:16:02.856Z,4.13
2019-05-02T18:18:32.046Z,4.60
2019-05-02T18:21:02.118Z,6.23
2019-05-02T18:23:32.273Z,5.40
2019-05-02T18:26:04.536Z,5.67
2019-05-02T18:28:31.585Z,6.10
2019-05-02T18:31:02.769Z,4.87
2019-05-02T18:33:30.711Z,4.87
2019-05-02T18:36:01.810Z,3.60
2019-05-02T18:38:32.466Z,4.30
2019-05-02T18:41:06.205Z,3.33
2019-05-02T18:43:36.087Z,5.13
2019-05-02T18:46:07.368Z,4.53
2019-05-02T18:48:36.658Z,4.60
2019-05-02T18:51:04.626Z,7.97
2019-05-02T18:53:33.552Z,4.13
2019-05-02T18:56:03.652Z,5.50
2019-05-02T18:58:36.323Z,6.43
2019-05-02T19:01:03.537Z,3.47
2019-05-02T19:03:33.349Z,4.40
2019-05-02T19:06:02.293Z,10.47
2019-05-02T19:08:38.770Z,3.63
2019-05-02T19:11:08.970Z,7.60
2019-05-02T19:13:32.688Z,5.80
2019-05-02T19:16:02.110Z,4.33
2019-05-02T19:18:32.396Z,10.20
2019-05-02T19:21:03.147Z,6.17
2019-05-02T19:23:32.667Z,7.93
2019-05-02T19:26:10.250Z,5.00
2019-05-02T19:28:54.733Z,4.33
2019-05-02T19:31:25.567Z,5.40
2019-05-02T19:33:54.618Z,5.87
2019-05-02T19:36:27.509Z,4.70
2019-05-02T19:38:57.430Z,3.20
2019-05-02T19:41:25.588Z,4.10
2019-05-02T19:43:54.323Z,3.37
2019-05-02T19:46:31.275Z,4.87
2019-05-02T19:48:54.363Z,7.50
2019-05-02T19:51:23.039Z,10.57
2019-05-02T19:53:59.452Z,7.30
2019-05-02T19:56:22.723Z,6.40
2019-05-02T19:58:52.156Z,5.80
2019-05-02T20:01:22.973Z,4.10
2019-05-02T20:03:52.085Z,4.30
2019-05-02T20:06:22.073Z,8.00
2019-05-02T20:08:52.537Z,6.57
2019-05-02T20:11:22.130Z,7.13
2019-05-02T20:13:51.606Z,4.03
2019-05-02T20:16:28.306Z,6.93
2019-05-02T20:18:57.479Z,3.77
2019-05-02T20:21:38.349Z,3.80
2019-05-02T20:24:15.320Z,4.97
2019-05-02T20:26:41.797Z,7.23
2019-05-02T20:29:11.066Z,3.90
2019-05-02T20:31:40.006Z,5.57
2019-05-02T20:34:08.746Z,4.73
2019-05-02T20:36:37.700Z,4.10
2019-05-02T20:39:07.764Z,4.90
2019-05-02T20:41:36.762Z,3.27
2019-05-02T20:44:05.970Z,5.83
2019-05-02T20:46:34.951Z,8.90
2019-05-02T20:49:03.983Z,5.93
2019-05-02T20:51:32.663Z,6.83
2019-05-02T20:54:02.028Z,5.80
2019-05-02T20:56:32.080Z,6.57
2019-05-02T20:59:02.002Z,5.57
2019-05-02T21:01:32.205Z,6.93
2019-05-02T21:04:02.736Z,2.73
2019-05-02T21:06:52.837Z,4.83
2019-05-02T21:09:36.018Z,3.80
2019-05-02T21:12:06.664Z,6.87
2019-05-02T21:14:35.631Z,4.73
2019-05-02T21:17:04.802Z,2.97
2019-05-02T21:19:34.000Z,5.70
2019-05-02T21:22:05.834Z,4.27
2019-05-02T21:24:34.547Z,3.70
2019-05-02T21:27:03.229Z,4.00
2019-05-02T21:29:32.191Z,2.63
2019-05-02T21:32:01.287Z,5.37
2019-05-02T21:34:31.846Z,5.77
2019-05-02T21:37:02.531Z,4.20
2019-05-02T21:39:31.908Z,4.93
2019-05-02T21:42:02.327Z,6.43
2019-05-02T21:44:31.689Z,6.00
2019-05-02T21:47:02.857Z,3.27
2019-05-02T21:49:59.324Z,3.70
2019-05-02T21:53:02.253Z,4.33
2019-05-02T21:55:44.432Z,6.60
2019-05-02T21:58:13.583Z,3.27
2019-05-02T22:00:53.943Z,3.70
2019-05-02T22:03:22.920Z,5.67
2019-05-02T22:05:51.871Z,4.30
2019-05-02T22:08:21.645Z,6.73
2019-05-02T22:10:52.116Z,5.67
2019-05-02T22:13:22.265Z,4.63
2019-05-02T22:15:51.731Z,4.17
2019-05-02T22:18:21.647Z,8.67
2019-05-02T22:20:52.345Z,5.93
2019-05-02T22:23:21.106Z,2.60
2019-05-02T22:25:49.802Z,3.80
2019-05-02T22:28:18.524Z,5.90
2019-05-02T22:30:47.296Z,2.87
2019-05-02T22:33:16.010Z,6.53
2019-05-02T22:35:44.696Z,4.23
2019-05-02T22:38:24.282Z,8.43
2019-05-02T22:40:54.731Z,5.50
2019-05-02T22:43:23.533Z,3.07
2019-05-02T22:45:52.204Z,4.63
2019-05-02T22:48:22.740Z,4.27
2019-05-02T22:50:52.229Z,7.20
2019-05-02T22:53:21.582Z,4.63
2019-05-02T22:55:51.791Z,3.40
2019-05-02T22:58:22.231Z,4.23
2019-05-02T23:00:52.270Z,5.97
2019-05-02T23:03:21.506Z,4.50
2019-05-02T23:05:52.638Z,2.40
2019-05-02T23:08:21.984Z,5.47
2019-05-02T23:10:51.958Z,2.60
2019-05-02T23:13:21.997Z,3.70
2019-05-02T23:15:52.171Z,6.10
2019-05-02T23:18:22.734Z,6.57
2019-05-02T23:20:52.579Z,5.30
2019-05-02T23:23:21.585Z,4.13
2019-05-02T23:25:59.930Z,4.90
2019-05-02T23:28:29.491Z,4.23
2019-05-02T23:30:58.411Z,4.20
2019-05-02T23:33:46.426Z,3.17
2019-05-02T23:36:15.363Z,6.87
2019-05-02T23:38:44.568Z,5.20
2019-05-02T23:41:13.480Z,4.30
2019-05-02T23:43:43.066Z,2.43
2019-05-02T23:46:11.730Z,2.60
2019-05-02T23:48:41.951Z,2.60
2019-05-02T23:51:12.141Z,5.50
2019-05-02T23:53:42.239Z,5.03
2019-05-02T23:56:13.019Z,3.37
2019-05-02T23:58:42.601Z,3.67
